createdAt,value
2024-02-24T00:02:17.755Z,15.60
2024-02-24T00:04:46.161Z,11.07
2024-02-24T00:07:14.600Z,11.97
2024-02-24T00:09:42.822Z,12.87
2024-02-24T00:12:12.693Z,25.87
2024-02-24T00:14:40.944Z,40.23
2024-02-24T00:17:09.333Z,63.37
2024-02-24T00:19:37.578Z,48.60
2024-02-24T00:22:06.063Z,45.37
2024-02-24T00:24:34.280Z,37.70
2024-02-24T00:27:02.512Z,112.43
2024-02-24T00:29:32.100Z,148.40
2024-02-24T00:32:00.570Z,135.73
2024-02-24T00:34:28.761Z,112.00
2024-02-24T00:36:56.937Z,140.83
2024-02-24T00:39:25.220Z,73.80
2024-02-24T00:41:53.589Z,69.27
2024-02-24T00:44:21.886Z,36.60
2024-02-24T00:46:51.575Z,51.17
2024-02-24T00:49:20.478Z,19.60
2024-02-24T00:51:49.264Z,13.67
2024-02-24T00:54:17.476Z,19.60
2024-02-24T00:56:46.057Z,11.27
2024-02-24T00:59:14.435Z,8.27
2024-02-24T01:01:42.687Z,9.03
2024-02-24T01:04:12.391Z,12.20
2024-02-24T01:06:40.573Z,11.37
2024-02-24T01:09:08.962Z,8.80
2024-02-24T01:11:38.394Z,11.37
2024-02-24T01:14:07.204Z,10.67
2024-02-24T01:16:35.716Z,7.37
2024-02-24T01:19:04.242Z,10.50
2024-02-24T01:21:33.874Z,9.30
2024-02-24T01:24:02.184Z,12.47
2024-02-24T01:26:30.492Z,12.47
2024-02-24T01:28:58.695Z,9.20
2024-02-24T01:31:27.122Z,8.53
2024-02-24T01:33:55.507Z,11.40
2024-02-24T01:36:24.089Z,9.73
2024-02-24T01:38:55.812Z,9.20
2024-02-24T01:41:24.545Z,7.13
2024-02-24T01:43:52.835Z,11.67
2024-02-24T01:46:21.438Z,8.10
2024-02-24T01:48:49.885Z,10.40
2024-02-24T01:51:18.869Z,12.23
2024-02-24T01:53:47.737Z,13.23
2024-02-24T01:56:18.171Z,13.13
2024-02-24T01:58:47.080Z,11.43
2024-02-24T02:01:18.107Z,12.57
2024-02-24T02:03:46.999Z,12.10
2024-02-24T02:06:16.113Z,10.07
2024-02-24T02:08:44.602Z,10.53
2024-02-24T02:11:13.666Z,10.20
2024-02-24T02:13:43.864Z,9.90
2024-02-24T02:16:12.673Z,11.07
2024-02-24T02:18:41.101Z,10.50
2024-02-24T02:21:10.931Z,8.87
2024-02-24T02:23:40.833Z,8.87
2024-02-24T02:26:09.454Z,12.60
2024-02-24T02:28:37.758Z,11.60
2024-02-24T02:31:06.355Z,11.57
2024-02-24T02:33:34.907Z,16.53
2024-02-24T02:36:03.418Z,20.70
2024-02-24T02:38:31.728Z,9.70
2024-02-24T02:41:02.764Z,10.70
2024-02-24T02:43:31.017Z,7.80
2024-02-24T02:45:59.217Z,8.53
2024-02-24T02:48:27.691Z,11.07
2024-02-24T02:50:56.428Z,10.80
2024-02-24T02:53:24.882Z,11.60
2024-02-24T02:55:53.457Z,12.83
2024-02-24T02:58:23.359Z,9.43
2024-02-24T03:00:51.682Z,11.00
2024-02-24T03:03:20.313Z,10.17
2024-02-24T03:05:49.605Z,9.67
2024-02-24T03:08:18.336Z,7.07
2024-02-24T03:10:47.282Z,14.47
2024-02-24T03:13:16.122Z,9.80
2024-02-24T03:15:45.876Z,8.20
2024-02-24T03:18:15.869Z,11.27
2024-02-24T03:20:44.276Z,9.20
2024-02-24T03:23:13.150Z,15.17
2024-02-24T03:25:41.493Z,9.67
2024-02-24T03:28:09.758Z,13.17
2024-02-24T03:30:38.011Z,15.03
2024-02-24T03:33:08.578Z,9.40
2024-02-24T03:35:36.957Z,9.80
2024-02-24T03:38:05.713Z,12.37
2024-02-24T03:40:34.149Z,16.20
2024-02-24T03:43:02.431Z,13.23
2024-02-24T03:45:32.690Z,19.10
2024-02-24T03:48:01.210Z,20.27
2024-02-24T03:50:31.305Z,17.13
2024-02-24T03:52:59.830Z,14.90
2024-02-24T03:55:28.284Z,15.10
2024-02-24T03:57:56.546Z,12.77
2024-02-24T04:00:24.747Z,10.30
2024-02-24T04:02:53.028Z,9.60
2024-02-24T04:05:21.496Z,8.30
2024-02-24T04:07:51.121Z,6.67
2024-02-24T04:10:19.635Z,7.73
2024-02-24T04:12:47.948Z,9.13
2024-02-24T04:15:20.942Z,7.90
2024-02-24T04:17:49.526Z,10.43
2024-02-24T04:20:18.944Z,6.57
2024-02-24T04:22:47.214Z,8.77
2024-02-24T04:25:16.903Z,8.03
2024-02-24T04:27:45.189Z,5.43
2024-02-24T04:30:14.409Z,9.83
2024-02-24T04:32:43.971Z,7.87
2024-02-24T04:35:13.539Z,10.77
2024-02-24T04:37:42.860Z,8.00
2024-02-24T04:40:11.934Z,6.40
2024-02-24T04:42:41.498Z,5.93
2024-02-24T04:45:11.206Z,8.33
2024-02-24T04:47:39.626Z,11.93
2024-02-24T04:50:09.774Z,6.03
2024-02-24T04:52:38.112Z,6.77
2024-02-24T04:55:07.410Z,3.57
2024-02-24T04:57:35.758Z,8.73
2024-02-24T05:00:07.138Z,4.97
2024-02-24T05:02:35.787Z,4.10
2024-02-24T05:05:04.219Z,5.23
2024-02-24T05:07:32.435Z,3.93
2024-02-24T05:10:00.907Z,4.53
2024-02-24T05:12:29.117Z,8.27
2024-02-24T05:14:57.319Z,7.60
2024-02-24T05:17:26.930Z,6.17
2024-02-24T05:19:55.229Z,4.53
2024-02-24T05:22:23.649Z,5.87
2024-02-24T05:24:51.842Z,4.80
2024-02-24T05:27:20.950Z,5.00
2024-02-24T05:29:49.309Z,5.03
2024-02-24T05:32:18.502Z,4.07
2024-02-24T05:34:48.268Z,3.97
2024-02-24T05:37:16.908Z,5.90
2024-02-24T05:39:49.562Z,7.07
2024-02-24T05:42:19.786Z,5.90
2024-02-24T05:44:48.170Z,2.60
2024-02-24T05:47:16.439Z,7.97
2024-02-24T05:49:44.989Z,5.13
2024-02-24T05:52:14.774Z,7.40
2024-02-24T05:54:43.407Z,12.00
2024-02-24T05:57:11.761Z,4.57
2024-02-24T05:59:40.142Z,5.77
2024-02-24T06:02:08.561Z,2.73
2024-02-24T06:04:37.500Z,6.27
2024-02-24T06:07:06.035Z,4.50
2024-02-24T06:09:35.871Z,5.47
2024-02-24T06:12:04.739Z,4.87
2024-02-24T06:14:33.037Z,7.67
2024-02-24T06:17:01.459Z,4.50
2024-02-24T06:19:29.785Z,4.00
2024-02-24T06:21:58.085Z,7.37
2024-02-24T06:24:26.330Z,3.93
2024-02-24T06:26:55.945Z,5.50
2024-02-24T06:29:24.462Z,4.10
2024-02-24T06:31:52.668Z,4.07
2024-02-24T06:34:20.839Z,8.97
2024-02-24T06:36:49.329Z,5.17
2024-02-24T06:39:17.484Z,6.27
2024-02-24T06:41:45.761Z,5.60
2024-02-24T06:44:18.667Z,7.17
2024-02-24T06:46:48.595Z,9.33
2024-02-24T06:49:17.093Z,7.37
2024-02-24T06:51:45.417Z,8.47
2024-02-24T06:54:14.093Z,7.83
2024-02-24T06:56:42.945Z,7.77
2024-02-24T06:59:11.617Z,8.53
2024-02-24T07:01:41.720Z,9.77
2024-02-24T07:04:11.759Z,6.33
2024-02-24T07:06:40.038Z,9.63
2024-02-24T07:09:08.210Z,6.60
2024-02-24T07:11:36.787Z,10.23
2024-02-24T07:14:05.097Z,6.47
2024-02-24T07:16:33.346Z,6.40
2024-02-24T07:19:03.366Z,6.47
2024-02-24T07:21:31.598Z,8.20
2024-02-24T07:23:59.774Z,7.27
2024-02-24T07:26:28.050Z,3.97
2024-02-24T07:28:56.409Z,6.43
2024-02-24T07:31:24.609Z,3.33
2024-02-24T07:33:52.995Z,4.00
2024-02-24T07:36:22.722Z,4.67
2024-02-24T07:38:50.906Z,5.13
2024-02-24T07:41:19.191Z,6.03
2024-02-24T07:43:47.393Z,5.67
2024-02-24T07:46:28.339Z,4.30
2024-02-24T07:48:58.108Z,7.97
2024-02-24T07:51:29.396Z,3.93
2024-02-24T07:53:58.953Z,4.00
2024-02-24T07:56:28.496Z,5.93
2024-02-24T07:58:56.848Z,6.10
2024-02-24T08:01:25.244Z,4.00
2024-02-24T08:03:53.518Z,6.50
2024-02-24T08:06:22.986Z,4.90
2024-02-24T08:08:54.110Z,3.50
2024-02-24T08:11:22.777Z,3.47
2024-02-24T08:13:51.399Z,6.87
2024-02-24T08:16:23.121Z,6.20
2024-02-24T08:18:51.466Z,8.33
2024-02-24T08:21:19.785Z,4.40
2024-02-24T08:23:48.130Z,3.20
2024-02-24T08:26:17.911Z,7.60
2024-02-24T08:28:46.121Z,1.80
2024-02-24T08:31:14.422Z,5.50
2024-02-24T08:33:43.999Z,7.40
2024-02-24T08:36:18.149Z,5.40
2024-02-24T08:38:46.610Z,3.90
2024-02-24T08:41:15.196Z,2.80
2024-02-24T08:43:44.790Z,3.17
2024-02-24T08:46:13.022Z,5.37
2024-02-24T08:48:41.267Z,5.17
2024-02-24T08:51:09.929Z,3.43
2024-02-24T08:53:38.355Z,3.10
2024-02-24T08:56:07.770Z,3.57
2024-02-24T08:58:36.171Z,3.10
2024-02-24T09:01:07.451Z,5.23
2024-02-24T09:03:36.069Z,7.20
2024-02-24T09:06:04.637Z,3.90
2024-02-24T09:08:33.072Z,2.87
2024-02-24T09:11:01.535Z,2.87
2024-02-24T09:13:29.818Z,6.80
2024-02-24T09:15:58.153Z,3.87
2024-02-24T09:18:29.242Z,2.17
2024-02-24T09:20:57.827Z,4.67
2024-02-24T09:23:26.335Z,2.97
2024-02-24T09:25:54.704Z,4.60
2024-02-24T09:28:22.868Z,4.60
2024-02-24T09:30:52.636Z,3.97
2024-02-24T09:33:21.296Z,1.93
2024-02-24T09:35:51.088Z,5.10
2024-02-24T09:38:19.353Z,2.27
2024-02-24T09:40:50.200Z,2.90
2024-02-24T09:43:18.759Z,2.60
2024-02-24T09:45:49.739Z,3.47
2024-02-24T09:48:20.381Z,2.93
2024-02-24T09:50:50.161Z,2.43
2024-02-24T09:53:18.561Z,2.70
2024-02-24T09:55:48.949Z,1.87
2024-02-24T09:58:19.592Z,3.53
2024-02-24T10:00:51.921Z,8.90
2024-02-24T10:03:22.253Z,14.37
2024-02-24T10:05:52.290Z,4.63
2024-02-24T10:08:20.977Z,3.97
2024-02-24T10:10:49.419Z,3.87
2024-02-24T10:13:20.531Z,3.37
2024-02-24T10:15:49.248Z,2.40
2024-02-24T10:18:22.374Z,4.23
2024-02-24T10:20:55.998Z,2.50
2024-02-24T10:23:24.280Z,4.77
2024-02-24T10:25:54.691Z,1.33
2024-02-24T10:28:23.106Z,3.83
2024-02-24T10:30:51.337Z,2.47
2024-02-24T10:33:21.140Z,0.83
2024-02-24T10:35:52.708Z,2.30
2024-02-24T10:38:34.074Z,6.47
2024-02-24T10:41:09.222Z,3.70
2024-02-24T10:43:39.980Z,3.43
2024-02-24T10:46:08.231Z,2.77
2024-02-24T10:48:36.628Z,1.50
2024-02-24T10:51:06.973Z,3.57
2024-02-24T10:53:36.699Z,2.23
2024-02-24T10:56:06.752Z,2.93
2024-02-24T10:58:36.341Z,2.70
2024-02-24T11:01:05.428Z,14.23
2024-02-24T11:03:33.827Z,4.40
2024-02-24T11:06:03.311Z,5.37
2024-02-24T11:08:44.335Z,1.50
2024-02-24T11:11:15.674Z,2.50
2024-02-24T11:14:00.099Z,4.27
2024-02-24T11:16:38.006Z,3.70
2024-02-24T11:19:13.156Z,8.20
2024-02-24T11:22:01.408Z,5.90
2024-02-24T11:24:35.767Z,2.80
2024-02-24T11:27:05.788Z,2.63
2024-02-24T11:29:37.166Z,3.23
2024-02-24T11:32:17.827Z,9.50
2024-02-24T11:34:47.034Z,3.87
2024-02-24T11:37:20.914Z,6.43
2024-02-24T11:39:51.535Z,2.33
2024-02-24T11:42:21.924Z,24.90
2024-02-24T11:44:53.087Z,5.23
2024-02-24T11:47:21.547Z,26.83
2024-02-24T11:49:50.881Z,3.20
2024-02-24T11:52:19.328Z,3.37
2024-02-24T11:54:48.659Z,5.07
2024-02-24T11:57:21.301Z,2.20
2024-02-24T11:59:51.861Z,3.03
2024-02-24T12:02:21.071Z,3.07
2024-02-24T12:04:49.888Z,2.50
2024-02-24T12:07:19.799Z,4.30
2024-02-24T12:09:50.831Z,1.37
2024-02-24T12:12:22.304Z,1.90
2024-02-24T12:14:50.883Z,2.33
2024-02-24T12:17:21.515Z,3.90
2024-02-24T12:19:49.872Z,5.73
2024-02-24T12:22:18.664Z,2.27
2024-02-24T12:24:46.924Z,1.63
2024-02-24T12:27:15.900Z,3.83
2024-02-24T12:29:46.029Z,2.13
2024-02-24T12:32:15.956Z,2.40
2024-02-24T12:34:44.231Z,12.53
2024-02-24T12:37:12.903Z,10.13
2024-02-24T12:39:44.088Z,4.90
2024-02-24T12:42:12.666Z,10.97
2024-02-24T12:44:40.869Z,6.30
2024-02-24T12:47:10.824Z,17.47
2024-02-24T12:49:39.153Z,2.87
2024-02-24T12:52:07.717Z,1.53
2024-02-24T12:54:35.878Z,2.90
2024-02-24T12:57:03.616Z,5.57
2024-02-24T12:59:31.923Z,1.73
2024-02-24T13:02:00.440Z,4.40
2024-02-24T13:04:30.055Z,4.97
2024-02-24T13:06:58.371Z,3.30
2024-02-24T13:09:28.712Z,4.60
2024-02-24T13:11:57.834Z,4.60
2024-02-24T13:14:26.771Z,2.83
2024-02-24T13:16:55.907Z,2.30
2024-02-24T13:19:24.237Z,6.07
2024-02-24T13:21:54.368Z,1.10
2024-02-24T13:24:22.821Z,2.23
2024-02-24T13:26:52.067Z,1.30
2024-02-24T13:29:20.519Z,2.43
2024-02-24T13:31:49.339Z,3.80
2024-02-24T13:34:18.354Z,2.03
2024-02-24T13:36:46.862Z,4.70
2024-02-24T13:39:16.543Z,4.27
2024-02-24T13:41:44.945Z,3.77
2024-02-24T13:44:14.674Z,2.43
2024-02-24T13:46:47.631Z,6.03
2024-02-24T13:49:18.803Z,3.70
2024-02-24T13:51:48.847Z,4.17
2024-02-24T13:54:18.930Z,11.73
2024-02-24T13:56:48.765Z,9.03
2024-02-24T13:59:17.102Z,17.83
2024-02-24T14:01:45.396Z,5.60
2024-02-24T14:04:14.239Z,7.20
2024-02-24T14:06:43.635Z,9.40
2024-02-24T14:09:12.532Z,3.30
2024-02-24T14:11:42.451Z,3.03
2024-02-24T14:14:10.771Z,3.53
2024-02-24T14:16:40.761Z,1.47
2024-02-24T14:19:09.100Z,2.30
2024-02-24T14:21:37.476Z,3.63
2024-02-24T14:24:06.227Z,2.10
2024-02-24T14:26:34.704Z,4.30
2024-02-24T14:29:04.541Z,3.33
2024-02-24T14:31:33.048Z,2.20
2024-02-24T14:34:01.745Z,2.27
2024-02-24T14:36:30.213Z,1.37
2024-02-24T14:39:00.441Z,5.17
2024-02-24T14:41:29.213Z,2.33
2024-02-24T14:43:57.773Z,1.93
2024-02-24T14:46:27.345Z,4.73
2024-02-24T14:48:54.898Z,2.73
2024-02-24T14:51:23.458Z,1.90
2024-02-24T14:53:53.240Z,1.50
2024-02-24T14:56:22.193Z,3.00
2024-02-24T14:58:50.628Z,4.97
2024-02-24T15:01:19.141Z,4.80
2024-02-24T15:03:49.100Z,2.53
2024-02-24T15:06:18.846Z,2.93
2024-02-24T15:08:47.253Z,3.87
2024-02-24T15:11:15.760Z,6.70
2024-02-24T15:13:44.122Z,7.93
2024-02-24T15:16:12.514Z,8.10
2024-02-24T15:18:40.871Z,11.00
2024-02-24T15:21:10.758Z,9.20
2024-02-24T15:23:38.932Z,15.23
2024-02-24T15:26:07.351Z,30.40
2024-02-24T15:28:35.611Z,55.80
2024-02-24T15:31:04.619Z,14.13
2024-02-24T15:33:33.107Z,13.77
2024-02-24T15:36:02.144Z,28.80
2024-02-24T15:38:31.924Z,18.03
2024-02-24T15:41:00.075Z,36.20
2024-02-24T15:43:28.223Z,27.20
2024-02-24T15:45:56.681Z,47.33
2024-02-24T15:48:25.199Z,49.37
2024-02-24T15:50:53.671Z,79.77
2024-02-24T15:53:21.996Z,64.10
2024-02-24T15:55:55.948Z,61.43
2024-02-24T15:58:24.166Z,55.87
2024-02-24T16:00:52.604Z,35.50
2024-02-24T16:03:21.834Z,50.73
2024-02-24T16:05:50.310Z,91.50
2024-02-24T16:08:18.654Z,119.43
2024-02-24T16:10:48.582Z,119.93
2024-02-24T16:13:17.583Z,150.43
2024-02-24T16:15:46.138Z,178.60
2024-02-24T16:18:18.233Z,152.50
2024-02-24T16:20:46.531Z,125.27
2024-02-24T16:23:16.867Z,109.60
2024-02-24T16:25:45.195Z,163.53
2024-02-24T16:28:14.575Z,120.57
2024-02-24T16:30:44.311Z,83.77
2024-02-24T16:33:12.949Z,119.93
2024-02-24T16:35:41.512Z,115.53
2024-02-24T16:38:09.840Z,80.20
2024-02-24T16:40:38.117Z,96.73
2024-02-24T16:43:06.967Z,81.63
2024-02-24T16:45:35.329Z,91.33
2024-02-24T16:48:05.449Z,59.33
2024-02-24T16:50:34.471Z,58.40
2024-02-24T16:53:02.829Z,56.07
2024-02-24T16:55:31.153Z,56.07
2024-02-24T16:57:59.423Z,79.10
2024-02-24T17:00:27.770Z,67.33
2024-02-24T17:02:56.073Z,54.67
2024-02-24T17:05:25.727Z,75.90
2024-02-24T17:07:53.915Z,46.77
2024-02-24T17:10:22.193Z,27.37
2024-02-24T17:12:50.581Z,31.17
2024-02-24T17:15:18.205Z,27.87
2024-02-24T17:17:47.560Z,21.97
2024-02-24T17:20:16.393Z,20.20
2024-02-24T17:22:45.994Z,13.83
2024-02-24T17:25:14.533Z,15.77
2024-02-24T17:27:43.748Z,14.00
2024-02-24T17:30:15.623Z,10.77
2024-02-24T17:32:43.967Z,15.87
2024-02-24T17:35:13.090Z,12.13
2024-02-24T17:37:41.289Z,10.70
2024-02-24T17:40:13.836Z,6.30
2024-02-24T17:42:43.049Z,10.07
2024-02-24T17:45:12.159Z,10.93
2024-02-24T17:47:40.472Z,8.80
2024-02-24T17:50:10.426Z,19.50
2024-02-24T17:52:38.675Z,22.17
2024-02-24T17:55:07.795Z,30.80
2024-02-24T17:57:37.510Z,33.57
2024-02-24T18:00:09.840Z,36.97
2024-02-24T18:02:39.954Z,116.77
2024-02-24T18:05:10.749Z,258.73
2024-02-24T18:07:39.887Z,92.37
2024-02-24T18:10:09.168Z,56.80
2024-02-24T18:12:39.041Z,28.27
2024-02-24T18:15:09.080Z,36.67
2024-02-24T18:17:37.394Z,36.43
2024-02-24T18:20:07.572Z,38.27
2024-02-24T18:22:36.560Z,20.53
2024-02-24T18:25:05.861Z,23.87
2024-02-24T18:27:34.032Z,6.83
2024-02-24T18:30:05.808Z,7.27
2024-02-24T18:32:34.598Z,9.03
2024-02-24T18:35:03.439Z,18.10
2024-02-24T18:37:31.657Z,28.90
2024-02-24T18:40:03.124Z,31.00
2024-02-24T18:42:31.543Z,19.63
2024-02-24T18:44:59.873Z,30.53
2024-02-24T18:47:29.561Z,25.70
2024-02-24T18:49:58.670Z,28.40
2024-02-24T18:52:26.913Z,36.13
2024-02-24T18:54:56.460Z,34.53
2024-02-24T18:57:24.770Z,22.70
2024-02-24T18:59:54.120Z,16.33
2024-02-24T19:02:22.389Z,13.97
2024-02-24T19:04:52.171Z,10.33
2024-02-24T19:07:20.416Z,9.80
2024-02-24T19:09:48.962Z,7.87
2024-02-24T19:12:17.970Z,8.47
2024-02-24T19:14:52.158Z,10.47
2024-02-24T19:17:25.460Z,12.87
2024-02-24T19:19:55.558Z,11.57
2024-02-24T19:22:23.736Z,19.17
2024-02-24T19:24:51.918Z,10.50
2024-02-24T19:27:20.090Z,18.20
2024-02-24T19:29:48.374Z,24.23
2024-02-24T19:32:16.638Z,28.60
2024-02-24T19:34:44.925Z,19.60
2024-02-24T19:37:14.837Z,15.00
2024-02-24T19:39:43.196Z,16.37
2024-02-24T19:42:11.666Z,18.33
2024-02-24T19:44:39.926Z,12.60
2024-02-24T19:47:11.088Z,10.37
2024-02-24T19:49:39.396Z,16.53
2024-02-24T19:52:07.999Z,15.27
2024-02-24T19:54:38.225Z,9.63
2024-02-24T19:57:07.031Z,5.17
2024-02-24T19:59:39.773Z,7.53
2024-02-24T20:02:08.197Z,33.40
2024-02-24T20:04:36.810Z,56.07
2024-02-24T20:07:05.866Z,33.67
2024-02-24T20:09:39.140Z,24.53
2024-02-24T20:12:10.094Z,28.13
2024-02-24T20:14:38.383Z,27.73
2024-02-24T20:17:06.971Z,17.37
2024-02-24T20:19:35.807Z,11.43
2024-02-24T20:22:04.673Z,12.93
2024-02-24T20:24:33.028Z,11.37
2024-02-24T20:27:02.695Z,10.60
2024-02-24T20:29:31.304Z,9.77
2024-02-24T20:32:00.056Z,7.07
2024-02-24T20:34:28.821Z,9.30
2024-02-24T20:36:57.220Z,8.43
2024-02-24T20:39:25.410Z,5.80
2024-02-24T20:41:53.848Z,5.53
2024-02-24T20:44:23.833Z,7.93
2024-02-24T20:46:54.186Z,5.83
2024-02-24T20:49:25.573Z,6.33
2024-02-24T20:51:58.407Z,7.17
2024-02-24T20:54:29.907Z,8.30
2024-02-24T20:56:58.653Z,10.30
2024-02-24T20:59:28.390Z,8.57
2024-02-24T21:01:58.339Z,8.93
2024-02-24T21:04:27.536Z,11.00
2024-02-24T21:06:55.782Z,11.67
2024-02-24T21:09:23.997Z,11.20
2024-02-24T21:11:52.430Z,10.87
2024-02-24T21:14:22.347Z,17.40
2024-02-24T21:16:51.935Z,10.97
2024-02-24T21:19:20.184Z,11.20
2024-02-24T21:21:49.842Z,7.63
2024-02-24T21:24:21.455Z,8.50
2024-02-24T21:26:50.008Z,5.10
2024-02-24T21:29:18.331Z,3.90
2024-02-24T21:31:51.095Z,7.73
2024-02-24T21:34:22.548Z,5.80
2024-02-24T21:36:50.826Z,9.27
2024-02-24T21:39:19.041Z,5.90
2024-02-24T21:41:47.311Z,16.80
2024-02-24T21:44:15.510Z,14.40
2024-02-24T21:46:43.747Z,6.10
2024-02-24T21:49:12.185Z,7.17
2024-02-24T21:51:41.941Z,6.87
2024-02-24T21:54:15.330Z,6.87
2024-02-24T21:56:47.450Z,5.17
2024-02-24T21:59:16.102Z,4.07
2024-02-24T22:01:44.287Z,5.93
2024-02-24T22:04:12.637Z,4.83
2024-02-24T22:06:42.901Z,4.73
2024-02-24T22:09:11.417Z,5.00
2024-02-24T22:11:39.848Z,5.00
2024-02-24T22:14:08.197Z,5.13
2024-02-24T22:16:36.357Z,4.23
2024-02-24T22:19:04.674Z,4.17
2024-02-24T22:21:33.926Z,6.00
2024-02-24T22:24:03.763Z,5.03
2024-02-24T22:26:32.570Z,3.80
2024-02-24T22:29:01.783Z,5.63
2024-02-24T22:31:30.426Z,4.23
2024-02-24T22:33:58.957Z,5.57
2024-02-24T22:36:27.405Z,5.17
2024-02-24T22:38:55.620Z,4.17
2024-02-24T22:41:25.412Z,4.17
2024-02-24T22:43:53.544Z,3.37
2024-02-24T22:46:22.496Z,2.43
2024-02-24T22:48:50.730Z,3.63
2024-02-24T22:51:19.335Z,2.73
2024-02-24T22:53:47.701Z,4.30
2024-02-24T22:56:15.897Z,3.60
2024-02-24T22:58:46.307Z,3.17
2024-02-24T23:01:16.310Z,4.53
2024-02-24T23:03:45.228Z,3.70
2024-02-24T23:06:13.505Z,8.77
2024-02-24T23:08:41.729Z,3.53
2024-02-24T23:11:11.510Z,5.47
2024-02-24T23:13:40.919Z,4.83
2024-02-24T23:16:10.532Z,4.80
2024-02-24T23:18:38.905Z,4.13
2024-02-24T23:21:07.605Z,8.27
2024-02-24T23:23:35.826Z,8.50
2024-02-24T23:26:04.589Z,5.67
2024-02-24T23:28:32.828Z,9.77
2024-02-24T23:31:01.773Z,7.00
2024-02-24T23:33:31.394Z,6.50
2024-02-24T23:35:59.795Z,5.23
2024-02-24T23:38:28.008Z,4.93
2024-02-24T23:40:56.286Z,7.07
2024-02-24T23:43:24.554Z,6.07
2024-02-24T23:45:52.708Z,6.97
2024-02-24T23:48:20.988Z,8.30
2024-02-24T23:50:50.756Z,7.77
2024-02-24T23:53:19.046Z,5.63
2024-02-24T23:55:47.273Z,5.83
2024-02-24T23:58:15.534Z,7.67
